createdAt,value
2023-05-21T00:00:44.461Z,99998.28
2023-05-21T00:03:14.292Z,99993.97
2023-05-21T00:05:45.335Z,99987.09
2023-05-21T00:08:13.049Z,99987.91
2023-05-21T00:10:40.623Z,99986.13
2023-05-21T00:13:09.234Z,99983.56
2023-05-21T00:15:36.673Z,99988.69
2023-05-21T00:18:04.467Z,99976.19
2023-05-21T00:20:35.731Z,99972.19
2023-05-21T00:23:05.443Z,99966.69
2023-05-21T00:25:32.762Z,99969.09
2023-05-21T00:28:00.421Z,99968.81
2023-05-21T00:30:27.817Z,99971.38
2023-05-21T00:32:55.231Z,99978.88
2023-05-21T00:35:22.786Z,99975.38
2023-05-21T00:37:50.369Z,99967.69
2023-05-21T00:40:19.547Z,99966.09
2023-05-21T00:42:48.440Z,99962.22
2023-05-21T00:45:16.145Z,99957.09
2023-05-21T00:47:44.384Z,99957.09
2023-05-21T00:50:12.306Z,99960.59
2023-05-21T00:52:42.322Z,99964.91
2023-05-21T00:55:11.152Z,99959.66
2023-05-21T00:57:40.524Z,99960.31
2023-05-21T01:00:10.932Z,99964.50
2023-05-21T01:02:38.841Z,99965.28
2023-05-21T01:05:07.370Z,99969.31
2023-05-21T01:07:36.250Z,99967.56
2023-05-21T01:10:06.370Z,99968.22
2023-05-21T01:12:35.901Z,99964.69
2023-05-21T01:15:06.672Z,99967.81
2023-05-21T01:17:35.766Z,99970.38
2023-05-21T01:20:11.744Z,99967.81
2023-05-21T01:22:47.893Z,99963.47
2023-05-21T01:25:16.826Z,99955.94
2023-05-21T01:27:44.379Z,99965.06
2023-05-21T01:30:13.596Z,99962.38
2023-05-21T01:32:48.252Z,99960.91
2023-05-21T01:35:21.245Z,99965.88
2023-05-21T01:37:53.521Z,99960.47
2023-05-21T01:40:23.924Z,99961.13
2023-05-21T01:42:52.210Z,99962.88
2023-05-21T01:45:22.685Z,99956.00
2023-05-21T01:47:54.194Z,99956.44
2023-05-21T01:50:23.941Z,99964.81
2023-05-21T01:52:53.021Z,99964.28
2023-05-21T01:55:25.452Z,99964.88
2023-05-21T01:57:53.673Z,99959.75
2023-05-21T02:00:21.907Z,99955.56
2023-05-21T02:02:49.333Z,99960.69
2023-05-21T02:05:16.887Z,99958.41
2023-05-21T02:07:45.413Z,99959.88
2023-05-21T02:10:13.180Z,99957.31
2023-05-21T02:12:43.315Z,99951.25
2023-05-21T02:15:12.053Z,99951.41
2023-05-21T02:17:40.787Z,99951.41
2023-05-21T02:20:12.632Z,99953.00
2023-05-21T02:22:43.116Z,99945.03
2023-05-21T02:25:12.120Z,99947.59
2023-05-21T02:27:42.732Z,99950.81
2023-05-21T02:30:11.826Z,99950.00
2023-05-21T02:32:42.865Z,99956.22
2023-05-21T02:35:12.263Z,99952.34
2023-05-21T02:37:40.841Z,99952.78
2023-05-21T02:40:10.238Z,99952.53
2023-05-21T02:42:39.950Z,99953.94
2023-05-21T02:45:11.914Z,99955.97
2023-05-21T02:47:42.193Z,99959.63
2023-05-21T02:50:10.275Z,99953.19
2023-05-21T02:52:46.559Z,99961.00
2023-05-21T02:55:14.042Z,99959.00
2023-05-21T02:57:41.566Z,99960.25
2023-05-21T03:00:12.056Z,99958.63
2023-05-21T03:02:40.932Z,99962.44
2023-05-21T03:05:10.485Z,99952.88
2023-05-21T03:07:38.047Z,99962.13
2023-05-21T03:10:06.714Z,99960.25
2023-05-21T03:12:34.580Z,99958.38
2023-05-21T03:15:02.010Z,99956.44
2023-05-21T03:17:36.473Z,99963.19
2023-05-21T03:20:05.394Z,99964.13
2023-05-21T03:22:33.948Z,99958.88
2023-05-21T03:25:04.610Z,99963.44
2023-05-21T03:27:35.012Z,99957.22
2023-05-21T03:30:06.969Z,99958.53
2023-05-21T03:32:45.285Z,99959.34
2023-05-21T03:35:12.766Z,99966.06
2023-05-21T03:37:40.447Z,99966.06
2023-05-21T03:40:09.004Z,99967.53
2023-05-21T03:42:36.909Z,99964.19
2023-05-21T03:45:04.958Z,99962.03
2023-05-21T03:47:36.376Z,99968.13
2023-05-21T03:50:09.566Z,99968.75
2023-05-21T03:52:37.467Z,99970.38
2023-05-21T03:55:06.875Z,99968.75
2023-05-21T03:57:34.589Z,99960.28
2023-05-21T04:00:02.111Z,99959.63
2023-05-21T04:02:33.544Z,99960.44
2023-05-21T04:05:01.329Z,99966.50
2023-05-21T04:07:31.276Z,99961.53
2023-05-21T04:09:58.748Z,99963.28
2023-05-21T04:12:26.330Z,99959.09
2023-05-21T04:14:53.812Z,99956.03
2023-05-21T04:17:21.937Z,99950.78
2023-05-21T04:19:50.857Z,99958.31
2023-05-21T04:22:18.538Z,99956.53
2023-05-21T04:24:48.946Z,99953.03
2023-05-21T04:27:19.616Z,99954.34
2023-05-21T04:29:50.588Z,99960.16
2023-05-21T04:32:18.224Z,99963.38
2023-05-21T04:34:45.536Z,99957.16
2023-05-21T04:37:13.087Z,99959.06
2023-05-21T04:39:41.261Z,99962.84
2023-05-21T04:42:11.213Z,99958.53
2023-05-21T04:44:40.544Z,99956.25
2023-05-21T04:47:08.215Z,99957.50
2023-05-21T04:49:37.142Z,99958.16
2023-05-21T04:52:05.013Z,99965.25
2023-05-21T04:54:32.606Z,99966.31
2023-05-21T04:57:00.122Z,99960.09
2023-05-21T04:59:29.170Z,99965.28
2023-05-21T05:01:56.505Z,99965.72
2023-05-21T05:04:24.267Z,99969.00
2023-05-21T05:06:52.635Z,99962.41
2023-05-21T05:09:21.789Z,99959.56
2023-05-21T05:11:49.408Z,99961.19
2023-05-21T05:14:16.910Z,99964.13
2023-05-21T05:16:48.376Z,99967.13
2023-05-21T05:19:16.812Z,99963.38
2023-05-21T05:21:44.919Z,99958.63
2023-05-21T05:24:12.722Z,99963.13
2023-05-21T05:26:40.219Z,99966.03
2023-05-21T05:29:07.922Z,99967.78
2023-05-21T05:31:35.503Z,99978.63
2023-05-21T05:34:04.402Z,99972.31
2023-05-21T05:36:32.438Z,99984.13
2023-05-21T05:39:00.182Z,99980.50
2023-05-21T05:41:28.025Z,99982.44
2023-05-21T05:43:56.421Z,99974.56
2023-05-21T05:46:26.820Z,99984.56
2023-05-21T05:48:54.178Z,99977.69
2023-05-21T05:51:22.916Z,99981.19
2023-05-21T05:53:50.278Z,99984.69
2023-05-21T05:56:18.179Z,99982.44
2023-05-21T05:58:45.559Z,99978.06
2023-05-21T06:01:15.242Z,99981.63
2023-05-21T06:03:42.938Z,99978.25
2023-05-21T06:06:13.397Z,99984.97
2023-05-21T06:08:42.352Z,99980.81
2023-05-21T06:11:11.109Z,99983.50
2023-05-21T06:13:38.624Z,99993.59
2023-05-21T06:16:07.840Z,99988.69
2023-05-21T06:18:35.426Z,99986.38
2023-05-21T06:21:02.834Z,99979.78
2023-05-21T06:23:32.786Z,99985.53
2023-05-21T06:26:02.184Z,99991.16
2023-05-21T06:28:30.028Z,99987.19
2023-05-21T06:30:59.602Z,99990.56
2023-05-21T06:33:29.373Z,99985.81
2023-05-21T06:35:56.800Z,99996.06
2023-05-21T06:38:24.500Z,99993.06
2023-05-21T06:40:52.044Z,99989.09
2023-05-21T06:43:36.878Z,99993.47
2023-05-21T06:46:23.029Z,99998.13
2023-05-21T06:48:55.398Z,99993.16
2023-05-21T06:51:23.143Z,99997.50
2023-05-21T06:53:52.094Z,99989.50
2023-05-21T06:56:19.627Z,99987.28
2023-05-21T06:58:48.511Z,100004.00
2023-05-21T07:01:17.381Z,99997.25
2023-05-21T07:03:45.921Z,99993.81
2023-05-21T07:06:13.358Z,99998.66
2023-05-21T07:08:41.693Z,99994.50
2023-05-21T07:11:09.769Z,100000.97
2023-05-21T07:13:37.443Z,99996.78
2023-05-21T07:16:07.651Z,99992.03
2023-05-21T07:18:36.390Z,99994.94
2023-05-21T07:21:04.192Z,99994.47
2023-05-21T07:23:31.608Z,100001.56
2023-05-21T07:25:59.073Z,99994.06
2023-05-21T07:28:26.638Z,99998.94
2023-05-21T07:30:54.944Z,99996.72
2023-05-21T07:33:29.877Z,100002.59
2023-05-21T07:35:58.294Z,99994.78
2023-05-21T07:38:26.343Z,99995.31
2023-05-21T07:40:53.948Z,99993.44
2023-05-21T07:43:21.728Z,99995.06
2023-05-21T07:45:49.226Z,99996.03
2023-05-21T07:48:16.985Z,99983.81
2023-05-21T07:50:56.692Z,99994.09
2023-05-21T07:53:24.140Z,99995.38
2023-05-21T07:55:52.122Z,99992.81
2023-05-21T07:58:24.732Z,100000.50
2023-05-21T08:00:52.148Z,100008.06
2023-05-21T08:03:19.703Z,100004.06
2023-05-21T08:05:51.091Z,100011.28
2023-05-21T08:08:22.224Z,100007.88
2023-05-21T08:10:51.936Z,100005.00
2023-05-21T08:13:20.266Z,99997.13
2023-05-21T08:15:51.320Z,99997.63
2023-05-21T08:18:23.995Z,100002.13
2023-05-21T08:20:54.417Z,100008.75
2023-05-21T08:23:24.042Z,99994.25
2023-05-21T08:25:55.011Z,100000.53
2023-05-21T08:28:23.685Z,99994.25
2023-05-21T08:30:52.619Z,99992.63
2023-05-21T08:33:22.887Z,99996.97
2023-05-21T08:35:50.319Z,99997.31
2023-05-21T08:38:23.572Z,100000.53
2023-05-21T08:41:27.668Z,99994.09
2023-05-21T08:43:59.898Z,99994.25
2023-05-21T08:46:31.563Z,99990.56
2023-05-21T08:48:59.579Z,100010.94
2023-05-21T08:51:27.348Z,99999.22
2023-05-21T08:53:57.880Z,100015.72
2023-05-21T08:56:26.606Z,100005.00
2023-05-21T08:58:58.993Z,100016.22
2023-05-21T09:01:30.073Z,100017.34
2023-05-21T09:04:19.642Z,100008.22
2023-05-21T09:06:55.046Z,100001.47
2023-05-21T09:09:49.564Z,100006.31
2023-05-21T09:12:17.666Z,100006.00
2023-05-21T09:14:47.469Z,100012.72
2023-05-21T09:17:18.003Z,100014.66
2023-05-21T09:20:14.718Z,100017.41
2023-05-21T09:22:51.875Z,100020.78
2023-05-21T09:25:23.227Z,100020.91
2023-05-21T09:27:51.275Z,100030.09
2023-05-21T09:30:23.025Z,100027.81
2023-05-21T09:32:56.792Z,100027.53
2023-05-21T09:35:24.503Z,100026.88
2023-05-21T09:37:53.531Z,100023.97
2023-05-21T09:40:24.065Z,100039.72
2023-05-21T09:42:53.376Z,100031.69
2023-05-21T09:45:21.721Z,100031.38
2023-05-21T09:47:51.292Z,100033.28
2023-05-21T09:50:21.082Z,100039.44
2023-05-21T09:52:56.011Z,100037.00
2023-05-21T09:55:26.818Z,100034.28
2023-05-21T09:57:54.139Z,100037.19
2023-05-21T10:00:22.911Z,100040.22
2023-05-21T10:02:54.544Z,100041.00
2023-05-21T10:05:26.262Z,100031.34
2023-05-21T10:07:59.395Z,100037.06
2023-05-21T10:10:29.299Z,100040.94
2023-05-21T10:13:00.879Z,100035.28
2023-05-21T10:15:33.150Z,100036.41
2023-05-21T10:18:01.769Z,100042.66
2023-05-21T10:20:29.777Z,100029.28
2023-05-21T10:22:59.076Z,100042.13
2023-05-21T10:25:28.887Z,100037.25
2023-05-21T10:27:57.426Z,100033.56
2023-05-21T10:30:25.649Z,100042.56
2023-05-21T10:32:55.982Z,100044.56
2023-05-21T10:35:24.680Z,100033.81
2023-05-21T10:37:54.399Z,100031.56
2023-05-21T10:40:22.160Z,100034.72
2023-05-21T10:43:26.670Z,100033.88
2023-05-21T10:46:24.704Z,100032.88
2023-05-21T10:49:04.757Z,100030.66
2023-05-21T10:51:45.409Z,100024.69
2023-05-21T10:54:52.991Z,100033.69
2023-05-21T10:57:48.116Z,100027.88
2023-05-21T11:00:21.337Z,100031.72
2023-05-21T11:02:52.051Z,100039.41
2023-05-21T11:06:00.833Z,100036.44
2023-05-21T11:08:39.069Z,100032.97
2023-05-21T11:11:06.573Z,100042.31
2023-05-21T11:13:49.859Z,100033.66
2023-05-21T11:16:21.915Z,100036.69
2023-05-21T11:19:02.430Z,100038.06
2023-05-21T11:21:31.455Z,100032.84
2023-05-21T11:24:04.880Z,100029.22
2023-05-21T11:27:02.566Z,100037.81
2023-05-21T11:29:45.944Z,100030.75
2023-05-21T11:32:17.530Z,100049.19
2023-05-21T11:34:46.603Z,100033.59
2023-05-21T11:37:40.877Z,100040.38
2023-05-21T11:40:28.473Z,100034.69
2023-05-21T11:42:57.066Z,100041.63
2023-05-21T11:45:29.496Z,100047.06
2023-05-21T11:47:58.986Z,100048.88
2023-05-21T11:50:27.564Z,100045.13
2023-05-21T11:52:55.183Z,100043.22
2023-05-21T11:55:23.095Z,100033.88
2023-05-21T11:57:53.690Z,100026.84
2023-05-21T12:00:22.029Z,100039.69
2023-05-21T12:02:51.855Z,100046.31
2023-05-21T12:05:21.078Z,100037.75
2023-05-21T12:07:50.258Z,100038.38
2023-05-21T12:10:21.935Z,100048.31
2023-05-21T12:12:55.574Z,100047.31
2023-05-21T12:15:26.410Z,100041.19
2023-05-21T12:17:55.487Z,100051.31
2023-05-21T12:20:27.204Z,100053.88
2023-05-21T12:22:54.619Z,100051.50
2023-05-21T12:25:22.393Z,100051.97
2023-05-21T12:27:58.008Z,100047.28
2023-05-21T12:30:26.218Z,100054.03
2023-05-21T12:32:53.807Z,100049.34
2023-05-21T12:35:22.904Z,100053.03
2023-05-21T12:37:52.722Z,100046.59
2023-05-21T12:40:20.501Z,100045.00
2023-05-21T12:42:49.783Z,100046.16
2023-05-21T12:45:19.156Z,100047.91
2023-05-21T12:47:50.380Z,100040.66
2023-05-21T12:50:21.497Z,100052.34
2023-05-21T12:52:49.220Z,100033.47
2023-05-21T12:55:18.798Z,100034.34
2023-05-21T12:57:46.713Z,100037.63
2023-05-21T13:00:14.537Z,100035.03
2023-05-21T13:02:44.946Z,100027.88
2023-05-21T13:05:20.085Z,100027.63
2023-05-21T13:07:48.158Z,100027.44
2023-05-21T13:10:19.221Z,100030.75
2023-05-21T13:12:49.696Z,100032.53
2023-05-21T13:15:17.890Z,100033.66
2023-05-21T13:17:46.849Z,100040.56
2023-05-21T13:20:16.897Z,100039.22
2023-05-21T13:22:48.532Z,100042.22
2023-05-21T13:25:16.445Z,100038.84
2023-05-21T13:27:44.395Z,100045.72
2023-05-21T13:30:13.350Z,100035.56
2023-05-21T13:32:42.235Z,100033.78
2023-05-21T13:35:11.382Z,100035.03
2023-05-21T13:37:40.012Z,100036.25
2023-05-21T13:40:11.301Z,100032.72
2023-05-21T13:42:39.014Z,100038.56
2023-05-21T13:45:07.871Z,100028.50
2023-05-21T13:47:39.921Z,100029.75
2023-05-21T13:50:08.842Z,100043.84
2023-05-21T13:52:36.583Z,100038.50
2023-05-21T13:55:04.274Z,100040.56
2023-05-21T13:57:31.884Z,100032.88
2023-05-21T13:59:59.712Z,100039.31
2023-05-21T14:02:27.398Z,100041.81
2023-05-21T14:04:56.588Z,100039.13
2023-05-21T14:07:23.972Z,100024.50
2023-05-21T14:09:52.458Z,100032.66
2023-05-21T14:12:20.144Z,100039.53
2023-05-21T14:14:49.965Z,100031.91
2023-05-21T14:17:17.804Z,100030.78
2023-05-21T14:19:45.121Z,100029.25
2023-05-21T14:22:13.996Z,100032.59
2023-05-21T14:24:41.681Z,100024.66
2023-05-21T14:27:09.431Z,100022.50
2023-05-21T14:29:36.925Z,100026.25
2023-05-21T14:32:04.717Z,100030.53
2023-05-21T14:34:32.226Z,100031.47
2023-05-21T14:36:59.723Z,100026.41
2023-05-21T14:39:28.470Z,100028.44
2023-05-21T14:41:55.999Z,100019.53
2023-05-21T14:44:23.441Z,100024.09
2023-05-21T14:46:51.561Z,100023.28
2023-05-21T14:49:19.082Z,100025.13
2023-05-21T14:51:47.724Z,100024.50
2023-05-21T14:54:15.099Z,100021.19
2023-05-21T14:56:44.062Z,100018.25
2023-05-21T14:59:12.972Z,100022.00
2023-05-21T15:01:40.809Z,100019.53
2023-05-21T15:04:08.367Z,100014.16
2023-05-21T15:06:36.117Z,100022.22
2023-05-21T15:09:03.466Z,100020.06
2023-05-21T15:11:30.838Z,100007.78
2023-05-21T15:13:59.514Z,100018.03
2023-05-21T15:16:26.953Z,100014.63
2023-05-21T15:18:54.438Z,100010.53
2023-05-21T15:21:21.853Z,100010.81
2023-05-21T15:23:49.240Z,100020.22
2023-05-21T15:26:16.618Z,100018.81
2023-05-21T15:28:44.187Z,100020.44
2023-05-21T15:31:12.886Z,100019.34
2023-05-21T15:33:40.166Z,100021.13
2023-05-21T15:36:08.228Z,100020.69
2023-05-21T15:38:35.499Z,100015.44
2023-05-21T15:41:03.505Z,100016.59
2023-05-21T15:43:31.450Z,100012.16
2023-05-21T15:45:59.021Z,100007.69
2023-05-21T15:48:27.732Z,100014.91
2023-05-21T15:50:56.588Z,100015.59
2023-05-21T15:53:24.354Z,100005.66
2023-05-21T15:55:51.640Z,100011.19
2023-05-21T15:58:18.971Z,100010.81
2023-05-21T16:00:46.421Z,100011.34
2023-05-21T16:03:14.155Z,100012.56
2023-05-21T16:05:42.860Z,100014.59
2023-05-21T16:08:12.288Z,100015.31
2023-05-21T16:10:40.177Z,100017.28
2023-05-21T16:13:08.870Z,100017.44
2023-05-21T16:15:36.371Z,100026.16
2023-05-21T16:18:04.048Z,100030.06
2023-05-21T16:20:31.642Z,100027.84
2023-05-21T16:23:00.470Z,100025.88
2023-05-21T16:25:28.020Z,100035.22
2023-05-21T16:27:55.444Z,100029.09
2023-05-21T16:30:22.824Z,100016.34
2023-05-21T16:32:50.152Z,100016.72
2023-05-21T16:35:20.844Z,100018.03
2023-05-21T16:37:48.170Z,100021.13
2023-05-21T16:40:17.089Z,100026.66
2023-05-21T16:42:44.418Z,100014.72
2023-05-21T16:45:19.596Z,100015.88
2023-05-21T16:47:47.809Z,100024.72
2023-05-21T16:50:15.461Z,100021.53
2023-05-21T16:52:42.918Z,100024.28
2023-05-21T16:55:10.820Z,100025.59
2023-05-21T16:57:39.653Z,100026.56
2023-05-21T17:00:08.007Z,100015.59
2023-05-21T17:02:35.575Z,100019.50
2023-05-21T17:05:03.050Z,100014.06
2023-05-21T17:07:31.724Z,100003.47
2023-05-21T17:09:59.134Z,100011.56
2023-05-21T17:12:26.605Z,100013.97
2023-05-21T17:14:55.654Z,100026.56
2023-05-21T17:17:23.404Z,100021.94
2023-05-21T17:19:50.899Z,100018.41
2023-05-21T17:22:18.175Z,100027.78
2023-05-21T17:24:46.157Z,100021.88
2023-05-21T17:27:13.739Z,100029.97
2023-05-21T17:29:41.612Z,100028.53
2023-05-21T17:32:10.414Z,100030.78
2023-05-21T17:34:38.255Z,100034.06
2023-05-21T17:37:07.014Z,100034.28
2023-05-21T17:39:34.449Z,100029.59
2023-05-21T17:42:02.187Z,100032.69
2023-05-21T17:44:29.605Z,100033.81
2023-05-21T17:46:57.092Z,100040.59
2023-05-21T17:49:26.094Z,100042.16
2023-05-21T17:51:53.717Z,100040.41
2023-05-21T17:54:21.508Z,100043.63
2023-05-21T17:56:49.176Z,100040.09
2023-05-21T17:59:16.772Z,100040.25
2023-05-21T18:01:44.313Z,100035.09
2023-05-21T18:04:12.998Z,100035.44
2023-05-21T18:06:42.919Z,100038.19
2023-05-21T18:09:13.294Z,100036.56
2023-05-21T18:11:43.480Z,100036.91
2023-05-21T18:14:11.408Z,100039.00
2023-05-21T18:16:38.846Z,100036.13
2023-05-21T18:19:06.778Z,100033.06
2023-05-21T18:21:35.281Z,100041.44
2023-05-21T18:24:05.036Z,100026.81
2023-05-21T18:26:32.560Z,100027.31
2023-05-21T18:29:00.222Z,100036.63
2023-05-21T18:31:28.193Z,100038.44
2023-05-21T18:33:55.774Z,100040.06
2023-05-21T18:36:24.070Z,100037.19
2023-05-21T18:38:52.441Z,100035.25
2023-05-21T18:41:22.518Z,100039.91
2023-05-21T18:43:50.196Z,100042.00
2023-05-21T18:46:17.596Z,100035.56
2023-05-21T18:48:46.232Z,100037.81
2023-05-21T18:51:15.028Z,100034.13
2023-05-21T18:53:42.552Z,100046.66
2023-05-21T18:56:10.431Z,100043.75
2023-05-21T18:58:39.266Z,100043.44
2023-05-21T19:01:06.992Z,100044.09
2023-05-21T19:03:34.388Z,100043.91
2023-05-21T19:06:01.920Z,100040.06
2023-05-21T19:08:29.366Z,100040.53
2023-05-21T19:10:56.802Z,100038.44
2023-05-21T19:13:24.239Z,100040.84
2023-05-21T19:15:53.190Z,100036.44
2023-05-21T19:18:20.808Z,100043.97
2023-05-21T19:20:48.186Z,100040.91
2023-05-21T19:23:15.584Z,100038.97
2023-05-21T19:25:43.046Z,100039.59
2023-05-21T19:28:10.493Z,100050.47
2023-05-21T19:30:38.239Z,100048.53
2023-05-21T19:33:07.229Z,100044.03
2023-05-21T19:35:35.072Z,100047.84
2023-05-21T19:38:04.947Z,100047.50
2023-05-21T19:40:33.823Z,100051.19
2023-05-21T19:43:01.499Z,100042.34
2023-05-21T19:45:29.102Z,100046.19
2023-05-21T19:47:56.767Z,100054.34
2023-05-21T19:50:28.769Z,100050.63
2023-05-21T19:52:57.320Z,100054.13
2023-05-21T19:55:25.118Z,100053.78
2023-05-21T19:57:52.909Z,100050.41
2023-05-21T20:00:21.118Z,100048.97
2023-05-21T20:02:48.692Z,100052.63
2023-05-21T20:05:16.381Z,100047.81
2023-05-21T20:07:45.469Z,100046.34
2023-05-21T20:10:12.824Z,100049.34
2023-05-21T20:12:40.475Z,100038.59
2023-05-21T20:15:08.622Z,100041.63
2023-05-21T20:17:36.265Z,100041.41
2023-05-21T20:20:11.253Z,100039.16
2023-05-21T20:22:38.719Z,100036.22
2023-05-21T20:25:08.843Z,100039.09
2023-05-21T20:27:38.802Z,100037.75
2023-05-21T20:30:07.709Z,100032.94
2023-05-21T20:32:35.040Z,100041.75
2023-05-21T20:35:03.678Z,100040.59
2023-05-21T20:37:33.992Z,100044.66
2023-05-21T20:40:01.494Z,100046.03
2023-05-21T20:42:35.055Z,100041.53
2023-05-21T20:45:03.413Z,100050.97
2023-05-21T20:47:34.738Z,100050.97
2023-05-21T20:50:04.320Z,100051.94
2023-05-21T20:52:32.852Z,100058.56
2023-05-21T20:55:00.657Z,100052.72
2023-05-21T20:57:28.727Z,100051.03
2023-05-21T20:59:57.374Z,100058.66
2023-05-21T21:02:25.165Z,100052.47
2023-05-21T21:04:53.942Z,100062.34
2023-05-21T21:07:21.691Z,100057.78
2023-05-21T21:09:49.634Z,100060.50
2023-05-21T21:14:47.241Z,100058.34
2023-05-21T21:17:16.218Z,100054.66
2023-05-21T21:19:43.627Z,100055.34
2023-05-21T21:22:11.250Z,100057.47
2023-05-21T21:24:38.597Z,100052.84
2023-05-21T21:27:06.861Z,100049.47
2023-05-21T21:29:34.068Z,100050.72
2023-05-21T21:32:01.844Z,100044.78
2023-05-21T21:34:30.837Z,100052.63
2023-05-21T21:36:58.111Z,100049.84
2023-05-21T21:39:26.908Z,100045.84
2023-05-21T21:41:54.557Z,100050.38
2023-05-21T21:44:21.913Z,100056.88
2023-05-21T21:46:49.304Z,100045.00
2023-05-21T21:49:19.833Z,100049.31
2023-05-21T21:51:49.229Z,100039.06
2023-05-21T21:54:16.928Z,100042.59
2023-05-21T21:56:44.219Z,100038.56
2023-05-21T21:59:11.674Z,100043.16
2023-05-21T22:01:39.099Z,100042.34
2023-05-21T22:04:06.721Z,100034.53
2023-05-21T22:06:34.174Z,100041.13
2023-05-21T22:09:03.021Z,100034.91
2023-05-21T22:11:30.581Z,100029.66
2023-05-21T22:13:57.911Z,100026.00
2023-05-21T22:16:25.388Z,100026.53
2023-05-21T22:18:54.365Z,100027.16
2023-05-21T22:21:27.191Z,100026.22
2023-05-21T22:23:54.814Z,100034.72
2023-05-21T22:26:24.343Z,100029.28
2023-05-21T22:28:51.757Z,100018.91
2023-05-21T22:31:19.431Z,100020.66
2023-05-21T22:33:47.031Z,100030.09
2023-05-21T22:36:14.644Z,100024.59
2023-05-21T22:38:43.615Z,100029.94
2023-05-21T22:41:11.393Z,100023.25
2023-05-21T22:43:40.166Z,100028.13
2023-05-21T22:46:07.595Z,100022.63
2023-05-21T22:48:37.394Z,100017.13
2023-05-21T22:51:05.708Z,100017.66
2023-05-21T22:53:33.705Z,100014.59
2023-05-21T22:56:01.498Z,100007.72
2023-05-21T22:58:29.053Z,100011.22
2023-05-21T23:00:58.088Z,100020.53
2023-05-21T23:03:25.574Z,100012.16
2023-05-21T23:05:52.824Z,100013.94
2023-05-21T23:08:20.236Z,100009.91
2023-05-21T23:10:47.679Z,100018.50
2023-05-21T23:13:15.123Z,100012.59
2023-05-21T23:15:43.971Z,100014.50
2023-05-21T23:18:13.256Z,100009.50
2023-05-21T23:20:41.359Z,100002.13
2023-05-21T23:23:09.536Z,100006.16
2023-05-21T23:25:37.467Z,100005.09
2023-05-21T23:28:05.345Z,100006.47
2023-05-21T23:30:32.724Z,100004.03
2023-05-21T23:33:00.749Z,100002.28
2023-05-21T23:35:29.698Z,100002.41
2023-05-21T23:37:57.373Z,100005.91
2023-05-21T23:40:24.915Z,99999.97
2023-05-21T23:42:53.760Z,100012.00
2023-05-21T23:45:21.190Z,99999.22
2023-05-21T23:47:48.601Z,100006.72
2023-05-21T23:50:16.617Z,100004.97
2023-05-21T23:52:45.582Z,100012.63
2023-05-21T23:55:14.955Z,100012.38
2023-05-21T23:57:42.471Z,100007.09
